createdAt,value
2018-12-03T00:01:48.309Z,10.50
2018-12-03T00:04:22.165Z,10.60
2018-12-03T00:06:54.720Z,10.60
2018-12-03T00:09:27.364Z,10.60
2018-12-03T00:11:59.965Z,10.60
2018-12-03T00:14:32.396Z,10.60
2018-12-03T00:17:04.972Z,10.70
2018-12-03T00:19:37.344Z,10.70
2018-12-03T00:22:09.942Z,10.70
2018-12-03T00:24:42.389Z,10.70
2018-12-03T00:27:14.917Z,10.70
2018-12-03T00:29:47.430Z,10.70
2018-12-03T00:32:19.931Z,10.70
2018-12-03T00:34:52.404Z,10.70
2018-12-03T00:37:24.979Z,10.60
2018-12-03T00:39:57.424Z,10.70
2018-12-03T00:42:29.892Z,10.60
2018-12-03T00:45:02.398Z,10.60
2018-12-03T00:47:34.880Z,10.60
2018-12-03T00:50:07.456Z,10.60
2018-12-03T00:52:39.967Z,10.60
2018-12-03T00:55:12.432Z,10.60
2018-12-03T00:57:44.899Z,10.60
2018-12-03T01:00:17.405Z,10.60
2018-12-03T01:02:49.939Z,10.60
2018-12-03T01:05:22.345Z,10.60
2018-12-03T01:07:54.930Z,10.60
2018-12-03T01:10:27.554Z,10.60
2018-12-03T01:13:00.033Z,10.60
2018-12-03T01:15:32.513Z,10.60
2018-12-03T01:18:05.295Z,10.70
2018-12-03T01:20:37.791Z,10.70
2018-12-03T01:23:10.289Z,10.70
2018-12-03T01:25:42.747Z,10.80
2018-12-03T01:28:15.195Z,10.80
2018-12-03T01:30:47.683Z,10.80
2018-12-03T01:33:20.141Z,10.80
2018-12-03T01:35:52.589Z,10.80
2018-12-03T01:38:25.108Z,10.80
2018-12-03T01:40:57.540Z,10.70
2018-12-03T01:43:29.996Z,10.70
2018-12-03T01:46:02.447Z,10.70
2018-12-03T01:48:34.890Z,10.80
2018-12-03T01:51:07.381Z,10.70
2018-12-03T01:53:39.817Z,10.80
2018-12-03T01:56:12.316Z,10.80
2018-12-03T01:58:44.763Z,10.80
2018-12-03T02:01:17.233Z,10.80
2018-12-03T02:03:49.691Z,10.80
2018-12-03T02:06:22.109Z,10.80
2018-12-03T02:08:54.605Z,10.90
2018-12-03T02:11:27.033Z,10.80
2018-12-03T02:13:59.448Z,10.90
2018-12-03T02:16:31.924Z,11.00
2018-12-03T02:19:04.951Z,11.00
2018-12-03T02:21:37.399Z,11.00
2018-12-03T02:24:09.894Z,11.00
2018-12-03T02:26:42.419Z,11.00
2018-12-03T02:29:14.831Z,11.10
2018-12-03T02:31:47.593Z,11.00
2018-12-03T02:34:20.049Z,11.00
2018-12-03T02:36:52.467Z,11.00
2018-12-03T02:39:24.941Z,11.10
2018-12-03T02:41:57.377Z,11.10
2018-12-03T02:44:29.826Z,11.20
2018-12-03T02:47:02.288Z,11.20
2018-12-03T02:49:34.725Z,11.10
2018-12-03T02:52:07.194Z,11.10
2018-12-03T02:54:39.632Z,11.10
2018-12-03T02:57:12.182Z,11.20
2018-12-03T02:59:44.556Z,11.20
2018-12-03T03:02:16.992Z,11.20
2018-12-03T03:04:49.446Z,11.30
2018-12-03T03:07:22.024Z,11.30
2018-12-03T03:09:54.419Z,11.30
2018-12-03T03:12:27.527Z,11.20
2018-12-03T03:14:59.980Z,11.30
2018-12-03T03:17:32.463Z,11.30
2018-12-03T03:20:06.205Z,11.30
2018-12-03T03:22:38.697Z,11.30
2018-12-03T03:25:11.347Z,11.40
2018-12-03T03:27:43.743Z,11.40
2018-12-03T03:30:16.189Z,11.50
2018-12-03T03:32:48.865Z,11.40
2018-12-03T03:35:21.291Z,11.40
2018-12-03T03:37:53.906Z,11.40
2018-12-03T03:40:26.498Z,11.40
2018-12-03T03:42:59.192Z,11.40
2018-12-03T03:45:31.829Z,11.40
2018-12-03T03:48:04.973Z,11.40
2018-12-03T03:50:37.410Z,11.40
2018-12-03T03:53:10.032Z,11.40
2018-12-03T03:55:42.627Z,11.40
2018-12-03T03:58:15.238Z,11.40
2018-12-03T04:00:47.864Z,11.40
2018-12-03T04:03:20.360Z,11.40
2018-12-03T04:05:52.909Z,11.30
2018-12-03T04:08:25.481Z,11.30
2018-12-03T04:10:57.890Z,11.40
2018-12-03T04:13:30.454Z,11.40
2018-12-03T04:16:02.892Z,11.40
2018-12-03T04:18:35.453Z,11.40
2018-12-03T04:21:07.821Z,11.50
2018-12-03T04:23:40.300Z,11.50
2018-12-03T04:26:12.741Z,11.50
2018-12-03T04:28:45.254Z,11.40
2018-12-03T04:31:17.718Z,11.40
2018-12-03T04:33:50.197Z,11.50
2018-12-03T04:36:22.871Z,11.40
2018-12-03T04:38:55.365Z,11.40
2018-12-03T04:41:27.848Z,11.40
2018-12-03T04:44:00.291Z,11.40
2018-12-03T04:46:33.294Z,11.50
2018-12-03T04:49:05.906Z,11.50
2018-12-03T04:51:38.423Z,11.40
2018-12-03T04:54:10.934Z,11.50
2018-12-03T04:56:43.471Z,11.50
2018-12-03T04:59:15.983Z,11.50
2018-12-03T05:01:48.558Z,11.50
2018-12-03T05:04:21.216Z,11.50
2018-12-03T05:06:53.811Z,11.50
2018-12-03T05:09:26.305Z,11.50
2018-12-03T05:11:58.948Z,11.60
2018-12-03T05:14:31.732Z,11.60
2018-12-03T05:17:04.285Z,11.60
2018-12-03T05:19:36.704Z,11.60
2018-12-03T05:22:09.280Z,11.60
2018-12-03T05:24:41.820Z,11.50
2018-12-03T05:27:14.277Z,11.60
2018-12-03T05:29:46.825Z,11.60
2018-12-03T05:32:19.336Z,11.60
2018-12-03T05:34:51.880Z,11.60
2018-12-03T05:37:24.407Z,11.60
2018-12-03T05:39:56.878Z,11.60
2018-12-03T05:42:29.387Z,11.70
2018-12-03T05:45:01.889Z,11.60
2018-12-03T05:47:34.459Z,11.70
2018-12-03T05:50:11.521Z,11.70
2018-12-03T05:52:46.033Z,11.60
2018-12-03T05:55:20.220Z,11.70
2018-12-03T05:57:52.778Z,11.70
2018-12-03T06:00:25.482Z,11.70
2018-12-03T06:02:58.208Z,11.60
2018-12-03T06:05:31.868Z,11.70
2018-12-03T06:08:03.479Z,11.60
2018-12-03T06:10:36.060Z,11.70
2018-12-03T06:13:08.484Z,11.70
2018-12-03T06:15:42.480Z,11.70
2018-12-03T06:18:15.128Z,11.70
2018-12-03T06:20:47.763Z,11.60
2018-12-03T06:23:20.450Z,11.70
2018-12-03T06:25:53.692Z,11.70
2018-12-03T06:28:26.261Z,11.70
2018-12-03T06:30:58.766Z,11.60
2018-12-03T06:33:31.372Z,11.70
2018-12-03T06:36:04.761Z,11.70
2018-12-03T06:38:37.354Z,11.60
2018-12-03T06:41:09.977Z,11.60
2018-12-03T06:43:42.449Z,11.60
2018-12-03T06:46:14.904Z,11.70
2018-12-03T06:48:47.451Z,11.70
2018-12-03T06:51:19.958Z,11.60
2018-12-03T06:53:52.584Z,11.60
2018-12-03T06:56:25.191Z,11.60
2018-12-03T06:58:58.103Z,11.60
2018-12-03T07:01:30.593Z,11.60
2018-12-03T07:04:03.162Z,11.60
2018-12-03T07:06:35.880Z,11.60
2018-12-03T07:09:11.033Z,11.60
2018-12-03T07:11:43.670Z,11.60
2018-12-03T07:14:16.422Z,11.60
2018-12-03T07:16:49.304Z,11.50
2018-12-03T07:19:21.865Z,11.60
2018-12-03T07:21:54.336Z,11.60
2018-12-03T07:24:26.914Z,11.60
2018-12-03T07:26:59.564Z,11.60
2018-12-03T07:29:32.206Z,11.60
2018-12-03T07:32:05.414Z,11.60
2018-12-03T07:34:38.221Z,11.60
2018-12-03T07:37:10.640Z,11.60
2018-12-03T07:39:43.303Z,11.60
2018-12-03T07:42:15.868Z,11.60
2018-12-03T07:44:48.304Z,11.60
2018-12-03T07:47:20.791Z,11.60
2018-12-03T07:49:53.614Z,11.60
2018-12-03T07:52:28.804Z,11.60
2018-12-03T07:55:01.739Z,11.60
2018-12-03T07:57:34.667Z,11.60
2018-12-03T08:00:11.628Z,11.60
2018-12-03T08:02:44.352Z,11.60
2018-12-03T08:05:17.008Z,11.60
2018-12-03T08:07:50.423Z,11.60
2018-12-03T08:10:22.939Z,11.60
2018-12-03T08:12:55.515Z,11.70
2018-12-03T08:15:28.128Z,11.70
2018-12-03T08:18:02.300Z,11.70
2018-12-03T08:20:37.536Z,11.70
2018-12-03T08:23:15.455Z,11.70
2018-12-03T08:25:48.150Z,11.70
2018-12-03T08:28:20.772Z,11.70
2018-12-03T08:30:53.276Z,11.80
2018-12-03T08:33:25.945Z,11.80
2018-12-03T08:35:58.459Z,11.90
2018-12-03T08:38:30.959Z,11.90
2018-12-03T08:41:06.056Z,11.90
2018-12-03T08:43:38.525Z,11.90
2018-12-03T08:46:11.086Z,11.90
2018-12-03T08:48:43.613Z,11.90
2018-12-03T08:51:16.075Z,12.00
2018-12-03T08:53:48.968Z,12.10
2018-12-03T08:56:21.437Z,12.00
2018-12-03T08:58:53.923Z,12.00
2018-12-03T09:01:26.685Z,12.00
2018-12-03T09:04:04.313Z,12.00
2018-12-03T09:06:36.905Z,12.00
2018-12-03T09:09:12.405Z,12.10
2018-12-03T09:11:48.150Z,12.20
2018-12-03T09:14:26.269Z,12.20
2018-12-03T09:17:02.436Z,12.20
2018-12-03T09:19:32.329Z,12.20
2018-12-03T09:22:05.272Z,12.10
2018-12-03T09:24:38.217Z,12.10
2018-12-03T09:27:15.122Z,12.20
2018-12-03T09:29:48.809Z,12.20
2018-12-03T09:32:21.518Z,12.10
2018-12-03T09:35:02.261Z,12.10
2018-12-03T09:37:35.528Z,12.10
2018-12-03T09:40:10.943Z,12.10
2018-12-03T09:42:43.553Z,12.10
2018-12-03T09:45:21.259Z,12.10
2018-12-03T09:47:54.568Z,12.10
2018-12-03T09:50:28.133Z,12.10
2018-12-03T09:53:00.890Z,12.20
2018-12-03T09:55:33.827Z,12.20
2018-12-03T09:58:10.503Z,12.20
2018-12-03T10:00:43.419Z,12.10
2018-12-03T10:03:21.019Z,12.20
2018-12-03T10:05:58.196Z,12.20
2018-12-03T10:08:31.191Z,12.20
2018-12-03T10:11:05.301Z,12.20
2018-12-03T10:13:37.797Z,12.30
2018-12-03T10:16:10.320Z,12.30
2018-12-03T10:18:47.231Z,12.30
2018-12-03T10:21:19.786Z,12.20
2018-12-03T10:23:52.177Z,12.30
2018-12-03T10:26:24.702Z,12.20
2018-12-03T10:28:57.239Z,12.20
2018-12-03T10:31:29.943Z,12.30
2018-12-03T10:34:02.715Z,12.30
2018-12-03T10:36:35.564Z,12.30
2018-12-03T10:39:10.862Z,12.40
2018-12-03T10:41:44.026Z,12.50
2018-12-03T10:44:19.241Z,12.50
2018-12-03T10:46:52.070Z,12.40
2018-12-03T10:49:24.626Z,12.40
2018-12-03T10:51:57.603Z,12.40
2018-12-03T10:54:34.824Z,12.40
2018-12-03T10:57:08.789Z,12.40
2018-12-03T10:59:46.759Z,12.40
2018-12-03T11:02:28.807Z,12.40
2018-12-03T11:05:07.161Z,12.40
2018-12-03T11:07:39.793Z,12.40
2018-12-03T11:10:13.999Z,12.60
2018-12-03T11:12:50.789Z,12.80
2018-12-03T11:15:23.734Z,12.80
2018-12-03T11:17:56.977Z,12.70
2018-12-03T11:20:30.227Z,12.70
2018-12-03T11:23:04.995Z,12.80
2018-12-03T11:25:40.395Z,12.90
2018-12-03T11:28:14.430Z,12.90
2018-12-03T11:30:54.713Z,12.90
2018-12-03T11:33:28.373Z,13.00
2018-12-03T11:36:01.103Z,13.00
2018-12-03T11:39:10.494Z,12.90
2018-12-03T11:41:43.070Z,12.90
2018-12-03T11:44:16.073Z,12.90
2018-12-03T11:46:49.132Z,13.00
2018-12-03T11:49:22.969Z,13.10
2018-12-03T11:51:55.756Z,13.20
2018-12-03T11:54:28.551Z,13.40
2018-12-03T11:57:01.353Z,13.40
2018-12-03T11:59:34.458Z,13.50
2018-12-03T12:02:11.138Z,13.40
2018-12-03T12:04:44.061Z,13.40
2018-12-03T12:07:17.502Z,13.40
2018-12-03T12:09:50.718Z,13.40
2018-12-03T12:12:24.041Z,13.40
2018-12-03T12:14:59.137Z,13.40
2018-12-03T12:17:31.865Z,13.50
2018-12-03T12:20:04.935Z,13.50
2018-12-03T12:22:38.007Z,13.60
2018-12-03T12:25:12.485Z,13.70
2018-12-03T12:27:51.818Z,13.70
2018-12-03T12:30:25.235Z,13.70
2018-12-03T12:32:58.139Z,13.70
2018-12-03T12:35:31.848Z,13.70
2018-12-03T12:38:05.318Z,13.70
2018-12-03T12:40:38.613Z,13.70
2018-12-03T12:43:11.540Z,13.60
2018-12-03T12:45:54.549Z,13.60
2018-12-03T12:48:27.100Z,13.70
2018-12-03T12:50:59.849Z,13.60
2018-12-03T12:53:33.181Z,13.60
2018-12-03T12:56:05.775Z,13.70
2018-12-03T12:58:38.938Z,13.70
2018-12-03T13:01:12.450Z,13.60
2018-12-03T13:03:45.166Z,13.60
2018-12-03T13:06:17.908Z,13.50
2018-12-03T13:08:50.602Z,13.50
2018-12-03T13:11:23.198Z,13.50
2018-12-03T13:13:55.846Z,13.50
2018-12-03T13:16:28.509Z,13.50
2018-12-03T13:19:01.221Z,13.50
2018-12-03T13:21:33.780Z,13.50
2018-12-03T13:24:06.565Z,13.40
2018-12-03T13:26:41.195Z,13.40
2018-12-03T13:29:13.777Z,13.30
2018-12-03T13:31:46.658Z,13.30
2018-12-03T13:34:19.225Z,13.30
2018-12-03T13:36:51.921Z,13.20
2018-12-03T13:39:24.510Z,13.20
2018-12-03T13:41:57.195Z,13.10
2018-12-03T13:44:29.812Z,13.10
2018-12-03T13:47:04.034Z,13.00
2018-12-03T13:49:36.894Z,13.00
2018-12-03T13:52:09.907Z,13.00
2018-12-03T13:54:42.716Z,12.90
2018-12-03T13:57:15.580Z,12.90
2018-12-03T13:59:48.596Z,12.80
2018-12-03T14:02:21.120Z,12.80
2018-12-03T14:04:53.721Z,12.80
2018-12-03T14:07:38.992Z,12.70
2018-12-03T14:12:39.058Z,12.70
2018-12-03T14:17:26.862Z,12.80
2018-12-03T14:20:00.238Z,12.70
2018-12-03T14:22:40.866Z,12.70
2018-12-03T14:25:13.794Z,12.60
2018-12-03T14:27:46.985Z,12.60
2018-12-03T14:30:20.441Z,12.60
2018-12-03T14:32:53.071Z,12.70
2018-12-03T14:35:25.801Z,12.60
2018-12-03T14:37:58.635Z,12.50
2018-12-03T14:40:31.819Z,12.50
2018-12-03T14:43:05.581Z,12.50
2018-12-03T14:45:38.422Z,12.50
2018-12-03T14:48:11.379Z,12.50
2018-12-03T14:50:44.353Z,12.50
2018-12-03T14:53:17.004Z,12.50
2018-12-03T14:55:49.946Z,12.40
2018-12-03T14:58:22.752Z,12.40
2018-12-03T15:00:55.463Z,12.40
2018-12-03T15:03:28.611Z,12.40
2018-12-03T15:06:02.557Z,12.40
2018-12-03T15:08:35.362Z,12.40
2018-12-03T15:11:08.065Z,12.30
2018-12-03T15:13:41.306Z,12.30
2018-12-03T15:16:14.101Z,12.30
2018-12-03T15:18:47.081Z,12.30
2018-12-03T15:21:19.799Z,12.30
2018-12-03T15:23:53.983Z,12.30
2018-12-03T15:26:26.532Z,12.30
2018-12-03T15:28:59.343Z,12.30
2018-12-03T15:31:32.266Z,12.30
2018-12-03T15:34:05.522Z,12.30
2018-12-03T15:36:38.534Z,12.30
2018-12-03T15:39:11.035Z,12.30
2018-12-03T15:41:44.747Z,12.30
2018-12-03T15:44:17.232Z,12.40
2018-12-03T15:46:50.908Z,12.30
2018-12-03T15:49:23.636Z,12.40
2018-12-03T15:51:56.634Z,12.40
2018-12-03T15:54:29.061Z,12.40
2018-12-03T15:57:01.793Z,12.40
2018-12-03T15:59:34.434Z,12.40
2018-12-03T16:02:37.688Z,12.30
2018-12-03T16:05:15.554Z,12.30
2018-12-03T16:07:48.367Z,12.30
2018-12-03T16:10:21.096Z,12.30
2018-12-03T16:12:53.589Z,12.30
2018-12-03T16:15:26.501Z,12.20
2018-12-03T16:17:59.397Z,12.10
2018-12-03T16:20:32.319Z,12.10
2018-12-03T16:23:05.063Z,12.10
2018-12-03T16:25:39.221Z,12.10
2018-12-03T16:28:11.905Z,12.00
2018-12-03T16:30:44.437Z,12.10
2018-12-03T16:33:16.952Z,12.10
2018-12-03T16:35:49.956Z,12.10
2018-12-03T16:38:22.569Z,12.00
2018-12-03T16:40:55.044Z,11.90
2018-12-03T16:43:27.657Z,11.90
2018-12-03T16:46:34.405Z,11.90
2018-12-03T16:49:07.668Z,11.80
2018-12-03T16:51:42.219Z,11.80
2018-12-03T16:54:15.209Z,11.90
2018-12-03T16:56:48.622Z,11.80
2018-12-03T16:59:22.378Z,11.80
2018-12-03T17:01:55.788Z,11.80
2018-12-03T17:04:30.453Z,11.80
2018-12-03T17:07:04.407Z,11.80
2018-12-03T17:09:37.376Z,11.80
2018-12-03T17:12:10.858Z,11.90
2018-12-03T17:14:44.186Z,11.80
2018-12-03T17:17:17.042Z,11.80
2018-12-03T17:19:49.834Z,11.70
2018-12-03T17:22:31.021Z,11.70
2018-12-03T17:25:08.353Z,11.70
2018-12-03T17:27:43.143Z,11.70
2018-12-03T17:30:16.688Z,11.70
2018-12-03T17:32:50.768Z,11.70
2018-12-03T17:35:23.978Z,11.60
2018-12-03T17:37:57.310Z,11.60
2018-12-03T17:40:31.907Z,11.60
2018-12-03T17:43:06.631Z,11.60
2018-12-03T17:45:41.280Z,11.70
2018-12-03T17:48:14.304Z,11.60
2018-12-03T17:50:47.369Z,11.60
2018-12-03T17:53:20.624Z,11.60
2018-12-03T17:55:54.525Z,11.60
2018-12-03T17:58:29.788Z,11.60
2018-12-03T18:01:02.890Z,11.50
2018-12-03T18:03:37.825Z,11.50
2018-12-03T18:06:17.032Z,11.50
2018-12-03T18:08:47.232Z,11.50
2018-12-03T18:11:21.384Z,11.50
2018-12-03T18:13:54.380Z,11.40
2018-12-03T18:16:28.072Z,11.40
2018-12-03T18:19:01.294Z,11.40
2018-12-03T18:21:34.834Z,11.40
2018-12-03T18:24:07.903Z,11.40
2018-12-03T18:26:40.689Z,11.40
2018-12-03T18:29:13.972Z,11.40
2018-12-03T18:31:47.772Z,11.40
2018-12-03T18:34:20.530Z,11.40
2018-12-03T18:36:53.175Z,11.30
2018-12-03T18:39:26.402Z,11.30
2018-12-03T18:41:59.452Z,11.20
2018-12-03T18:44:32.327Z,11.20
2018-12-03T18:47:05.010Z,11.20
2018-12-03T18:49:41.438Z,11.20
2018-12-03T18:52:15.557Z,11.20
2018-12-03T18:54:48.984Z,11.20
2018-12-03T18:57:22.096Z,11.10
2018-12-03T18:59:55.952Z,11.20
2018-12-03T19:02:29.381Z,11.20
2018-12-03T19:05:02.960Z,11.10
2018-12-03T19:07:35.972Z,11.10
2018-12-03T19:10:11.326Z,11.10
2018-12-03T19:12:45.199Z,11.10
2018-12-03T19:15:18.947Z,11.10
2018-12-03T19:17:51.885Z,11.10
2018-12-03T19:20:25.060Z,11.10
2018-12-03T19:22:59.931Z,11.10
2018-12-03T19:25:34.539Z,10.90
2018-12-03T19:28:11.454Z,10.90
2018-12-03T19:30:44.673Z,10.90
2018-12-03T19:33:18.273Z,11.00
2018-12-03T19:35:52.379Z,11.00
2018-12-03T19:38:26.760Z,10.90
2018-12-03T19:41:00.787Z,10.90
2018-12-03T19:43:34.169Z,10.90
2018-12-03T19:46:08.187Z,10.80
2018-12-03T19:48:41.489Z,10.80
2018-12-03T19:51:15.251Z,10.80
2018-12-03T19:53:48.344Z,10.80
2018-12-03T19:56:23.556Z,10.80
2018-12-03T19:58:56.957Z,10.80
2018-12-03T20:01:29.900Z,10.80
2018-12-03T20:04:03.047Z,10.80
2018-12-03T20:06:35.897Z,10.80
2018-12-03T20:09:09.714Z,10.80
2018-12-03T20:11:43.211Z,10.70
2018-12-03T20:14:16.401Z,10.70
2018-12-03T20:16:49.722Z,10.70
2018-12-03T20:19:22.757Z,10.60
2018-12-03T20:21:55.493Z,10.60
2018-12-03T20:24:29.402Z,10.50
2018-12-03T20:27:09.678Z,10.60
2018-12-03T20:29:48.400Z,10.50
2018-12-03T20:32:52.970Z,10.50
2018-12-03T20:35:48.141Z,10.50
2018-12-03T20:38:26.522Z,10.50
2018-12-03T20:41:14.769Z,10.50
2018-12-03T20:43:49.849Z,10.40
2018-12-03T20:46:49.691Z,10.60
2018-12-03T20:49:30.583Z,10.50
2018-12-03T20:52:13.992Z,10.50
2018-12-03T20:54:47.988Z,10.50
2018-12-03T20:57:20.476Z,10.50
2018-12-03T20:59:54.968Z,10.50
2018-12-03T21:02:29.606Z,10.40
2018-12-03T21:05:02.836Z,10.50
2018-12-03T21:07:35.749Z,10.40
2018-12-03T21:10:08.442Z,10.40
2018-12-03T21:12:42.312Z,10.40
2018-12-03T21:15:15.501Z,10.40
2018-12-03T21:17:48.410Z,10.50
2018-12-03T21:20:29.107Z,10.50
2018-12-03T21:23:02.387Z,10.40
2018-12-03T21:25:36.097Z,10.40
2018-12-03T21:28:09.786Z,10.30
2018-12-03T21:30:43.260Z,10.30
2018-12-03T21:33:16.628Z,10.30
2018-12-03T21:35:49.421Z,10.30
2018-12-03T21:38:22.372Z,10.40
2018-12-03T21:40:55.048Z,10.40
2018-12-03T21:43:28.218Z,10.50
2018-12-03T21:46:01.280Z,10.50
2018-12-03T21:48:34.563Z,10.40
2018-12-03T21:51:07.986Z,10.40
2018-12-03T21:53:41.341Z,10.30
2018-12-03T21:56:14.370Z,10.40
2018-12-03T21:58:47.464Z,10.30
2018-12-03T22:01:20.628Z,10.30
2018-12-03T22:03:53.104Z,10.40
2018-12-03T22:06:26.159Z,10.40
2018-12-03T22:08:59.171Z,10.50
2018-12-03T22:11:31.786Z,10.60
2018-12-03T22:14:04.969Z,10.60
2018-12-03T22:16:38.265Z,10.50
2018-12-03T22:19:11.204Z,10.40
2018-12-03T22:21:43.932Z,10.40
2018-12-03T22:24:16.753Z,10.30
2018-12-03T22:26:49.858Z,10.30
2018-12-03T22:29:22.453Z,10.30
2018-12-03T22:31:55.130Z,10.40
2018-12-03T22:34:28.527Z,10.40
2018-12-03T22:37:01.933Z,10.40
2018-12-03T22:39:34.680Z,10.40
2018-12-03T22:42:07.602Z,10.30
2018-12-03T22:44:41.988Z,10.40
2018-12-03T22:47:14.841Z,10.40
2018-12-03T22:49:47.546Z,10.30
2018-12-03T22:52:20.488Z,10.30
2018-12-03T22:54:54.341Z,10.30
2018-12-03T22:57:28.482Z,10.20
2018-12-03T23:00:01.520Z,10.30
2018-12-03T23:02:34.515Z,10.30
2018-12-03T23:05:07.720Z,10.30
2018-12-03T23:07:42.364Z,10.30
2018-12-03T23:10:15.328Z,10.30
2018-12-03T23:12:48.707Z,10.30
2018-12-03T23:15:21.430Z,10.30
2018-12-03T23:17:54.582Z,10.30
2018-12-03T23:20:27.670Z,10.40
2018-12-03T23:23:01.475Z,10.50
2018-12-03T23:25:35.857Z,10.40
2018-12-03T23:28:08.890Z,10.30
2018-12-03T23:30:41.615Z,10.30
2018-12-03T23:33:14.714Z,10.30
2018-12-03T23:35:47.608Z,10.30
2018-12-03T23:38:22.308Z,10.20
2018-12-03T23:40:55.072Z,10.30
2018-12-03T23:43:28.363Z,10.30
2018-12-03T23:46:01.852Z,10.30
2018-12-03T23:48:35.065Z,10.30
2018-12-03T23:51:08.386Z,10.40
2018-12-03T23:53:41.617Z,10.30
2018-12-03T23:56:14.255Z,10.40
2018-12-03T23:58:46.748Z,10.30
